Time;durP1;ratioP1;P1;durP2;ratioP2;P2;SDS_P1;SDS_P2;PMS_P1;PMS_P2;Temp;Humidity;BMP_temperature;BMP_pressure;BME280_temperature;BME280_humidity;BME280_pressure;Samples;Min_cycle;Max_cycle;Signal;HPM_P1;HPM_P2
2023/10/13 00:01:21;;;;;;;11.07;2.50;;;;;;;-145.69;43.46;51986.94;5103066;28;20557;-82
2023/10/13 00:03:48;;;;;;;5.65;2.88;;;;;;;-145.69;43.70;51981.00;5101391;28;20212;-82
2023/10/13 00:06:15;;;;;;;8.63;2.72;;;;;;;-145.69;43.71;51959.22;5099965;28;20213;-82
2023/10/13 00:08:42;;;;;;;7.10;3.00;;;;;;;-145.69;44.23;51967.13;5110953;28;20291;-82
2023/10/13 00:11:14;;;;;;;6.00;3.00;;;;;;;-145.69;44.58;51933.47;5110679;28;20206;-82
2023/10/13 00:13:50;;;;;;;10.57;2.85;;;;;;;-145.69;44.32;51965.16;5111633;28;20212;-82
2023/10/13 00:16:21;;;;;;;10.45;2.67;;;;;;;-145.69;44.26;51981.00;5110852;28;20197;-82
2023/10/13 00:18:48;;;;;;;6.70;2.55;;;;;;;-145.69;44.45;51973.06;5109089;28;20198;-82
2023/10/13 00:21:19;;;;;;;5.45;2.92;;;;;;;-145.69;44.56;51965.16;5110804;28;20201;-82
2023/10/13 00:23:53;;;;;;;9.43;2.90;;;;;;;-145.69;45.05;51965.16;5099402;28;20239;-82
2023/10/13 00:26:24;;;;;;;5.38;2.60;;;;;;;-145.69;45.13;51963.19;5089998;28;20202;-82
2023/10/13 00:28:58;;;;;;;7.82;2.67;;;;;;;-145.69;44.64;51967.13;5088490;28;20581;-82
2023/10/13 00:31:32;;;;;;;8.20;2.88;;;;;;;-145.69;45.60;51969.13;5109780;28;20198;-82
2023/10/13 00:34:09;;;;;;;8.23;3.10;;;;;;;-145.69;45.25;51953.28;5107982;28;20198;-82
2023/10/13 00:36:35;;;;;;;9.52;2.88;;;;;;;-145.69;45.01;51969.13;5105648;28;20205;-82
2023/10/13 00:39:03;;;;;;;6.80;2.90;;;;;;;-145.69;45.18;51975.06;5107702;28;20205;-82
2023/10/13 00:41:50;;;;;;;9.52;3.05;;;;;;;-145.69;44.81;51965.16;5108340;28;20202;-82
2023/10/13 00:44:28;;;;;;;5.78;2.60;;;;;;;-145.69;44.91;51977.03;5105732;28;20206;-82
2023/10/13 00:46:56;;;;;;;6.47;2.83;;;;;;;-145.69;45.65;51953.28;5107767;28;20212;-83
2023/10/13 00:49:23;;;;;;;12.52;3.28;;;;;;;-145.69;44.73;51959.22;5109295;28;20221;-82
2023/10/13 00:51:50;;;;;;;5.95;3.28;;;;;;;-145.69;44.55;52000.81;5109747;28;20247;-82
2023/10/13 00:54:18;;;;;;;9.18;3.03;;;;;;;-145.69;44.90;51965.16;5104446;28;20194;-82
2023/10/13 00:56:48;;;;;;;11.75;3.20;;;;;;;-145.69;46.08;51971.09;5107679;28;20259;-82
2023/10/13 00:59:14;;;;;;;7.65;2.83;;;;;;;-145.69;46.24;51949.31;5108656;28;20218;-82
2023/10/13 01:01:43;;;;;;;10.73;2.85;;;;;;;-145.69;45.72;51951.28;5106064;28;20205;-82
2023/10/13 01:04:12;;;;;;;5.15;2.50;;;;;;;-145.69;45.94;51979.03;5104695;28;20194;-81
2023/10/13 01:06:39;;;;;;;12.05;3.30;;;;;;;-145.69;46.08;51961.19;5100268;28;20206;-82
2023/10/13 01:09:13;;;;;;;11.98;2.58;;;;;;;-145.69;46.25;51963.19;5096227;28;20219;-82
2023/10/13 01:11:42;;;;;;;6.72;2.55;;;;;;;-145.69;46.34;51957.25;5103170;28;20673;-82
2023/10/13 01:14:11;;;;;;;9.68;3.35;;;;;;;-145.69;46.03;51965.16;5106300;28;20202;-82
2023/10/13 01:16:39;;;;;;;9.20;2.83;;;;;;;-145.69;46.33;51969.13;5102094;28;20522;-82
2023/10/13 01:19:05;;;;;;;9.55;2.97;;;;;;;-145.69;46.31;51977.03;5100509;28;20289;-82
2023/10/13 01:21:33;;;;;;;8.63;3.03;;;;;;;-145.69;46.84;52000.81;5101054;28;20221;-82
2023/10/13 01:24:00;;;;;;;9.30;3.15;;;;;;;-145.69;46.89;51967.13;5101656;28;20589;-82
2023/10/13 01:26:27;;;;;;;12.18;3.80;;;;;;;-145.69;48.62;51981.00;5100646;28;20261;-82
2023/10/13 01:28:57;;;;;;;7.32;3.35;;;;;;;-145.69;47.96;51986.94;5100866;28;20226;-82
2023/10/13 01:31:37;;;;;;;9.65;3.10;;;;;;;-145.69;47.92;51973.06;5099916;28;20198;-82
2023/10/13 01:34:02;;;;;;;11.50;3.22;;;;;;;-145.69;48.83;51998.81;5099801;28;20198;-83
2023/10/13 01:36:35;;;;;;;10.60;3.50;;;;;;;-145.69;48.91;51992.88;5101447;28;20200;-82
2023/10/13 01:39:02;;;;;;;7.65;3.38;;;;;;;-145.69;48.39;51982.97;5101523;28;20237;-82
2023/10/13 01:41:31;;;;;;;7.03;2.97;;;;;;;-145.69;47.76;51996.84;5099493;28;20236;-82
2023/10/13 01:43:57;;;;;;;13.05;3.00;;;;;;;-145.69;47.77;51967.13;5099788;28;20194;-82
2023/10/13 01:46:23;;;;;;;8.20;3.10;;;;;;;-145.69;47.80;51986.94;5105724;28;20599;-82
2023/10/13 01:48:49;;;;;;;10.35;3.30;;;;;;;-145.69;48.04;51977.03;5104590;28;20641;-82
2023/10/13 01:51:15;;;;;;;15.77;3.55;;;;;;;-145.69;48.08;51994.88;5102402;28;20205;-82
2023/10/13 01:53:41;;;;;;;7.03;2.90;;;;;;;-145.69;47.75;51961.19;5104498;28;20728;-82
2023/10/13 01:56:13;;;;;;;10.23;3.60;;;;;;;-145.69;48.13;51965.16;5103562;28;20240;-82
2023/10/13 01:58:42;;;;;;;8.13;3.03;;;;;;;-145.69;47.94;51988.91;5104005;28;20194;-82
2023/10/13 02:01:10;;;;;;;6.13;2.97;;;;;;;-145.69;48.36;51992.88;5103169;28;20198;-82
2023/10/13 02:03:40;;;;;;;9.70;3.47;;;;;;;-145.69;48.61;51988.91;5100043;28;20305;-83
2023/10/13 02:06:10;;;;;;;10.02;3.40;;;;;;;-145.69;49.01;52006.75;5097978;28;20533;-82
2023/10/13 02:08:42;;;;;;;8.32;3.40;;;;;;;-145.69;48.28;51986.94;5099380;28;20275;-82
2023/10/13 02:11:10;;;;;;;6.43;2.95;;;;;;;-145.69;48.56;51984.97;5100971;28;20202;-82
2023/10/13 02:13:41;;;;;;;9.98;2.92;;;;;;;-145.69;48.20;52008.72;5098812;28;20205;-82
2023/10/13 02:16:11;;;;;;;9.43;3.58;;;;;;;-145.69;48.47;52008.72;5099212;28;20206;-82
2023/10/13 02:18:41;;;;;;;13.18;3.33;;;;;;;-145.69;48.91;52002.78;5092448;28;20199;-82
2023/10/13 02:21:12;;;;;;;5.85;2.72;;;;;;;-145.69;48.55;52016.66;5099663;28;20202;-82
2023/10/13 02:23:43;;;;;;;8.63;2.83;;;;;;;-145.69;48.48;51975.06;5098487;28;20256;-82
2023/10/13 02:26:12;;;;;;;9.95;2.95;;;;;;;-145.69;48.72;52034.47;5099156;28;20205;-82
2023/10/13 02:28:41;;;;;;;9.40;2.97;;;;;;;-145.69;49.00;52022.59;5098034;28;20289;-82
2023/10/13 02:31:08;;;;;;;9.60;3.28;;;;;;;-145.69;49.00;52016.66;5096174;28;20265;-82
2023/10/13 02:33:34;;;;;;;10.93;3.47;;;;;;;-145.69;48.87;52002.78;5098135;28;20208;-82
2023/10/13 02:36:05;;;;;;;9.98;3.30;;;;;;;-145.69;48.99;51988.91;5098203;28;20194;-82
2023/10/13 02:38:34;;;;;;;12.32;3.60;;;;;;;-145.69;49.26;51990.91;5099499;28;20194;-82
2023/10/13 02:41:05;;;;;;;8.40;3.80;;;;;;;-145.69;50.06;52000.81;5097841;28;20641;-82
2023/10/13 02:43:34;;;;;;;10.35;3.50;;;;;;;-145.69;49.86;52012.69;5099553;28;20198;-83
2023/10/13 02:46:01;;;;;;;8.35;3.22;;;;;;;-145.69;49.53;52004.75;5099881;28;20511;-82
2023/10/13 02:48:30;;;;;;;11.48;3.22;;;;;;;-145.69;49.00;51973.06;5102576;28;20209;-82
2023/10/13 02:51:01;;;;;;;13.25;3.30;;;;;;;-145.69;48.98;51988.91;5101217;28;20216;-82
2023/10/13 02:53:28;;;;;;;11.02;3.28;;;;;;;-145.69;49.08;52004.75;5103301;28;20199;-82
2023/10/13 02:55:56;;;;;;;6.68;2.90;;;;;;;-145.69;48.61;51982.97;5098928;28;20573;-83
2023/10/13 02:58:37;;;;;;;7.90;3.00;;;;;;;-145.69;48.81;52004.75;5103717;28;20251;-82
2023/10/13 03:01:16;;;;;;;6.50;3.17;;;;;;;-145.69;48.87;52008.72;5104858;28;20228;-82
2023/10/13 03:03:43;;;;;;;6.93;2.67;;;;;;;-145.69;49.15;51996.84;5100389;28;20202;-82
2023/10/13 03:06:11;;;;;;;9.23;3.30;;;;;;;-145.69;48.72;52014.66;5100120;28;20217;-83
2023/10/13 03:08:37;;;;;;;11.57;2.80;;;;;;;-145.69;49.02;51984.97;5099525;28;20221;-83
2023/10/13 03:11:05;;;;;;;10.02;3.47;;;;;;;-145.69;49.86;52002.78;5102850;28;20206;-82
2023/10/13 03:13:33;;;;;;;8.85;3.13;;;;;;;-145.69;50.47;52040.41;5107329;28;20206;-83
2023/10/13 03:15:59;;;;;;;8.05;3.60;;;;;;;-145.69;50.14;52012.69;5105542;28;20598;-83
2023/10/13 03:18:33;;;;;;;12.30;3.40;;;;;;;-145.69;49.23;52024.56;5102109;28;20527;-80
2023/10/13 03:21:02;;;;;;;8.40;2.95;;;;;;;-145.69;49.12;51990.91;5100353;28;20202;-83
2023/10/13 03:23:28;;;;;;;16.08;4.10;;;;;;;-145.69;49.17;51996.84;5097936;28;20222;-81
2023/10/13 03:25:55;;;;;;;12.38;3.50;;;;;;;-145.69;49.31;52004.75;5099063;28;20190;-82
2023/10/13 03:28:25;;;;;;;6.32;3.03;;;;;;;-145.69;49.25;51996.84;5102064;28;20195;-82
2023/10/13 03:30:52;;;;;;;6.65;3.30;;;;;;;-145.69;50.33;52012.69;5101967;28;20217;-82
2023/10/13 03:33:25;;;;;;;10.48;4.00;;;;;;;-145.69;49.99;51986.94;5104213;28;20288;-82
2023/10/13 03:35:54;;;;;;;8.52;3.50;;;;;;;-145.69;49.66;52006.75;5100666;28;20202;-82
2023/10/13 03:38:20;;;;;;;6.88;3.00;;;;;;;-145.69;49.78;52012.69;5099069;28;20281;-82
2023/10/13 03:40:56;;;;;;;7.35;3.38;;;;;;;-145.69;49.58;51992.88;5100939;28;20225;-82
2023/10/13 03:43:23;;;;;;;11.50;3.60;;;;;;;-145.69;50.57;52014.66;5100845;28;20263;-82
2023/10/13 03:46:00;;;;;;;7.95;3.53;;;;;;;-145.69;50.24;51998.81;5100011;28;20215;-82
2023/10/13 03:48:31;;;;;;;17.52;3.40;;;;;;;-145.69;50.90;52024.56;5098749;28;20233;-82
2023/10/13 03:51:06;;;;;;;7.28;3.30;;;;;;;-145.69;50.83;51982.97;5095383;28;20610;-82
2023/10/13 03:53:36;;;;;;;10.93;3.72;;;;;;;-145.69;50.80;52008.72;5097061;28;20212;-82
2023/10/13 03:56:11;;;;;;;10.18;3.78;;;;;;;-145.69;51.16;52020.59;5098452;28;20288;-82
2023/10/13 03:58:42;;;;;;;7.38;3.65;;;;;;;-145.69;50.72;52002.78;5098145;28;20194;-82
2023/10/13 04:01:09;;;;;;;7.28;3.40;;;;;;;-145.69;51.38;51988.91;5098076;28;20228;-82
2023/10/13 04:03:36;;;;;;;7.28;3.25;;;;;;;-145.69;52.53;52028.53;5097179;28;20259;-82
2023/10/13 04:06:07;;;;;;;10.07;3.08;;;;;;;-145.69;52.54;52012.69;5098053;28;20198;-82
2023/10/13 04:08:47;;;;;;;14.00;3.60;;;;;;;-145.69;52.22;52024.56;5099260;28;20198;-83
2023/10/13 04:16:53;;;;;;;7.97;3.67;;;;;;;-145.69;51.13;52012.69;5096436;28;20216;-82
2023/10/13 04:19:23;;;;;;;12.05;3.17;;;;;;;-145.69;50.87;51996.84;5098447;28;20198;-82
2023/10/13 04:22:14;;;;;;;9.57;3.25;;;;;;;-145.69;50.21;52024.56;5101701;28;20194;-83
2023/10/13 04:25:00;;;;;;;9.88;3.60;;;;;;;-145.69;50.54;52024.56;5101088;28;20234;-82
2023/10/13 04:30:24;;;;;;;9.02;3.25;;;;;;;-145.69;51.10;52002.78;5090468;28;20263;-82
2023/10/13 04:33:06;;;;;;;10.70;3.42;;;;;;;-145.69;51.30;52034.47;5094812;28;20289;-81
2023/10/13 04:35:35;;;;;;;10.52;3.60;;;;;;;-145.69;52.26;51996.84;5099083;28;20665;-82
2023/10/13 04:38:18;;;;;;;7.95;3.42;;;;;;;-145.69;51.92;52002.78;5103271;28;20202;-82
2023/10/13 04:40:58;;;;;;;11.07;3.38;;;;;;;-145.69;51.50;51992.88;5093996;28;20198;-81
2023/10/13 04:43:33;;;;;;;8.02;3.80;;;;;;;-145.69;51.28;52008.72;5093249;28;20198;-81
2023/10/13 04:46:14;;;;;;;12.93;3.75;;;;;;;-145.69;52.44;52008.72;5073425;28;20204;-81
2023/10/13 04:48:40;;;;;;;12.98;3.63;;;;;;;-145.69;52.24;52020.59;5076310;28;20199;-81
2023/10/13 04:51:49;;;;;;;8.75;3.40;;;;;;;-145.69;52.08;51988.91;5073628;28;20241;-82
2023/10/13 04:54:12;;;;;;;14.00;3.80;;;;;;;-145.69;52.69;52052.28;5075940;28;20256;-81
2023/10/13 04:57:20;;;;;;;9.20;3.95;;;;;;;-145.69;52.23;52006.75;5088947;28;20538;-81
2023/10/13 05:00:43;;;;;;;6.65;3.13;;;;;;;-145.69;52.30;52020.59;5097326;28;20342;-81
2023/10/13 05:02:53;;;;;;;7.05;3.28;;;;;;;-145.69;52.67;52044.38;5099512;28;20202;-82
2023/10/13 05:05:31;;;;;;;13.95;3.25;;;;;;;-145.69;52.54;51982.97;5100594;28;20206;-82
2023/10/13 05:52:07;;;;;;;8.63;3.50;;;;;;;-145.69;51.02;52052.28;5115414;28;20201;-82
2023/10/13 06:30:57;;;;;;;9.85;2.67;;;;;;;-145.69;44.12;51982.97;5090168;28;20228;-82
2023/10/13 06:33:28;;;;;;;7.80;2.75;;;;;;;-145.69;43.00;51984.97;5108251;28;20201;-82
2023/10/13 06:35:57;;;;;;;10.35;3.25;;;;;;;-145.69;43.70;51957.25;5106043;28;20202;-82
2023/10/13 06:38:23;;;;;;;10.15;3.00;;;;;;;-145.69;44.61;51969.13;5088305;28;20198;-82
2023/10/13 06:40:52;;;;;;;9.25;2.80;;;;;;;-145.69;44.35;51984.97;5081316;28;20209;-82
2023/10/13 06:43:21;;;;;;;7.05;3.13;;;;;;;-145.69;44.42;51975.06;5087380;28;20252;-83
2023/10/13 06:45:56;;;;;;;13.32;2.85;;;;;;;-145.69;43.41;51996.84;5088076;28;20206;-83
2023/10/13 06:48:32;;;;;;;9.35;2.80;;;;;;;-145.69;44.66;52000.81;5094271;28;20247;-83
2023/10/13 06:51:17;;;;;;;9.80;2.17;;;;;;;-145.69;43.65;51996.84;5111223;28;20210;-83
2023/10/13 06:53:46;;;;;;;5.20;2.42;;;;;;;-145.69;43.03;52000.81;5109660;28;20227;-82
2023/10/13 06:56:16;;;;;;;14.05;2.50;;;;;;;-145.69;41.14;51973.06;5108010;28;20198;-82
2023/10/13 06:58:46;;;;;;;5.55;2.13;;;;;;;-145.69;41.77;51988.91;5109903;28;20648;-82
2023/10/13 07:01:15;;;;;;;7.70;2.47;;;;;;;-145.69;41.34;52000.81;5105987;28;20444;-83
2023/10/13 07:03:43;;;;;;;7.93;2.65;;;;;;;-145.69;41.34;51965.16;5109289;28;20190;-83
2023/10/13 07:06:11;;;;;;;7.68;2.40;;;;;;;-145.69;41.53;51975.06;5108482;28;20592;-82
2023/10/13 07:08:38;;;;;;;7.07;2.40;;;;;;;-145.69;41.69;51969.13;5104983;28;20646;-83
2023/10/13 07:11:08;;;;;;;8.25;2.45;;;;;;;-145.69;41.49;51977.03;5103582;28;20228;-82
2023/10/13 07:13:37;;;;;;;5.20;2.10;;;;;;;-145.69;41.23;52002.78;5104860;28;20198;-82
2023/10/13 07:16:12;;;;;;;10.23;2.67;;;;;;;-145.69;41.62;51955.25;5103338;28;20206;-83
2023/10/13 07:18:49;;;;;;;5.63;2.33;;;;;;;-145.69;41.36;51941.41;5103606;28;20197;-83
2023/10/13 07:21:24;;;;;;;9.32;2.50;;;;;;;-145.69;40.26;51947.34;5110860;28;20202;-82
2023/10/13 07:24:00;;;;;;;9.45;2.30;;;;;;;-145.69;39.36;51959.22;5110520;28;20237;-82
2023/10/13 07:26:30;;;;;;;9.88;2.58;;;;;;;-145.69;38.08;51941.41;5109629;28;20233;-82
2023/10/13 07:28:57;;;;;;;5.50;2.17;;;;;;;-145.69;38.19;51933.47;5111991;28;20216;-82
2023/10/13 07:31:26;;;;;;;10.18;2.25;;;;;;;-145.69;38.14;51943.38;5110906;28;20235;-82
2023/10/13 07:33:54;;;;;;;13.90;2.42;;;;;;;-145.69;38.30;51941.41;5109073;28;20293;-82
2023/10/13 07:36:27;;;;;;;11.70;3.22;;;;;;;-145.69;37.26;51937.44;5107740;28;20218;-82
2023/10/13 07:39:20;;;;;;;9.32;2.58;;;;;;;-145.69;37.04;51917.63;5106913;28;20198;-82
2023/10/13 07:41:51;;;;;;;12.35;1.95;;;;;;;-145.69;37.49;51893.88;5103124;28;20623;-81
2023/10/13 07:44:19;;;;;;;13.13;2.50;;;;;;;-145.69;37.77;51921.59;5101451;28;20285;-82
2023/10/13 07:46:58;;;;;;;8.23;2.58;;;;;;;-145.69;36.43;51939.41;5100686;28;20225;-82
2023/10/13 07:49:25;;;;;;;7.25;2.20;;;;;;;-145.69;37.07;51923.56;5098740;28;20595;-83
2023/10/13 07:51:57;;;;;;;5.50;2.13;;;;;;;-145.69;36.00;51905.75;5098789;28;20293;-82
2023/10/13 07:54:24;;;;;;;8.02;2.10;;;;;;;-145.69;36.87;51931.50;5105752;28;20209;-82
2023/10/13 07:56:50;;;;;;;7.47;2.38;;;;;;;-145.69;36.28;51907.72;5103511;28;20199;-82
2023/10/13 07:59:21;;;;;;;7.18;2.55;;;;;;;-145.69;35.26;51915.66;5098250;28;20289;-83
2023/10/13 08:01:56;;;;;;;6.65;2.45;;;;;;;-145.69;35.70;51913.69;5094218;28;20198;-82
2023/10/13 08:04:28;;;;;;;3.92;1.65;;;;;;;-145.69;35.85;51913.69;5095229;28;20232;-82
2023/10/13 08:07:03;;;;;;;12.55;2.42;;;;;;;-145.69;34.91;51921.59;5093171;28;20321;-82
2023/10/13 08:09:31;;;;;;;7.43;2.05;;;;;;;-145.69;34.70;51866.16;5104605;28;20259;-82
2023/10/13 08:11:58;;;;;;;22.40;3.08;;;;;;;-145.69;35.37;51921.59;5102536;28;20206;-83
2023/10/13 08:14:29;;;;;;;7.05;2.00;;;;;;;-145.69;34.67;51876.06;5103246;28;20202;-81
2023/10/13 08:16:59;;;;;;;11.88;2.40;;;;;;;-145.69;35.57;51901.78;5101721;28;20224;-82
2023/10/13 08:19:28;;;;;;;12.77;2.40;;;;;;;-145.69;35.10;51919.63;5097829;28;20581;-82
2023/10/13 08:22:23;;;;;;;11.32;2.10;;;;;;;-145.69;35.64;51882.00;5097922;28;20206;-82
2023/10/13 08:25:14;;;;;;;11.43;1.98;;;;;;;-145.69;36.06;51878.03;5095399;28;20230;-82
2023/10/13 08:27:49;;;;;;;9.73;1.92;;;;;;;-145.69;35.29;51921.59;5101619;28;20198;-83
2023/10/13 08:33:16;;;;;;;9.82;2.10;;;;;;;-145.69;33.56;51883.97;5081553;28;20204;-82
2023/10/13 08:35:54;;;;;;;6.63;2.03;;;;;;;-145.69;34.13;51883.97;5099082;28;20208;-82
2023/10/13 08:38:28;;;;;;;6.07;1.90;;;;;;;-145.69;33.98;51885.94;5098834;28;20289;-82
2023/10/13 08:41:29;;;;;;;4.63;1.60;;;;;;;-145.69;33.88;51882.00;5099154;28;20205;-83
2023/10/13 08:44:05;;;;;;;12.32;2.22;;;;;;;-145.69;34.26;51889.91;5097205;28;20205;-82
2023/10/13 08:46:51;;;;;;;7.93;1.98;;;;;;;-145.69;33.53;51864.16;5096530;28;20285;-82
2023/10/13 08:49:23;;;;;;;9.15;2.10;;;;;;;-145.69;32.84;51870.13;5096005;28;20417;-83
2023/10/13 08:52:05;;;;;;;7.03;2.60;;;;;;;-145.69;32.59;51874.06;5096385;28;20230;-83
2023/10/13 08:54:45;;;;;;;7.28;2.15;;;;;;;-145.69;32.49;51838.44;5095950;28;20198;-82
2023/10/13 08:59:55;;;;;;;7.28;2.03;;;;;;;-145.69;31.84;51826.56;5096005;28;20679;-83
2023/10/13 09:02:44;;;;;;;7.65;1.90;;;;;;;-145.69;31.93;51848.34;5095139;28;20197;-82
2023/10/13 09:05:41;;;;;;;11.93;2.30;;;;;;;-145.69;32.22;51838.44;5095962;28;20201;-83
2023/10/13 09:08:07;;;;;;;5.80;2.22;;;;;;;-145.69;32.24;51854.28;5096001;28;20711;-83
2023/10/13 09:10:44;;;;;;;7.63;2.05;;;;;;;-145.69;32.57;51854.28;5095776;28;20217;-82
2023/10/13 09:13:18;;;;;;;8.98;2.20;;;;;;;-145.69;31.96;51854.28;5095760;28;20575;-82
2023/10/13 09:18:46;;;;;;;7.75;2.10;;;;;;;-145.69;32.20;51820.59;5108280;27;20562;-83
2023/10/13 09:21:47;;;;;;;10.38;2.03;;;;;;;-145.69;32.98;51838.44;5109267;28;20193;-83
2023/10/13 09:24:27;;;;;;;7.45;1.73;;;;;;;-145.69;33.37;51846.34;5089579;28;20556;-83
2023/10/13 09:26:56;;;;;;;7.22;1.90;;;;;;;-145.69;33.07;51834.47;5100822;28;20200;-83
2023/10/13 09:29:24;;;;;;;9.57;2.03;;;;;;;-145.69;32.92;51822.59;5110196;28;20289;-83
2023/10/13 09:32:00;;;;;;;5.30;1.98;;;;;;;-145.69;32.74;51838.44;5109900;28;20284;-83
2023/10/13 09:34:33;;;;;;;8.38;1.80;;;;;;;-145.69;33.18;51794.88;5110349;28;20197;-83
2023/10/13 09:37:03;;;;;;;6.00;1.85;;;;;;;-145.69;32.73;51848.34;5110242;28;20278;-81
2023/10/13 09:39:34;;;;;;;9.43;2.25;;;;;;;-145.69;32.83;51830.50;5110465;28;20684;-80
2023/10/13 09:42:03;;;;;;;6.97;2.17;;;;;;;-145.69;31.55;51870.13;5110269;28;20301;-81
2023/10/13 09:44:30;;;;;;;5.05;1.80;;;;;;;-145.69;32.05;51828.53;5110508;28;20205;-83
2023/10/13 09:47:07;;;;;;;7.18;2.00;;;;;;;-145.69;31.55;51806.75;5110473;28;20246;-83
2023/10/13 09:49:51;;;;;;;6.53;2.08;;;;;;;-145.69;30.57;51818.63;5110089;28;20281;-83
2023/10/13 09:52:25;;;;;;;5.53;1.80;;;;;;;-145.69;30.99;51820.59;5110290;28;20204;-83
2023/10/13 09:55:04;;;;;;;6.93;1.80;;;;;;;-145.69;31.07;51788.94;5109885;28;20208;-83
2023/10/13 09:57:44;;;;;;;9.65;1.95;;;;;;;-145.69;30.65;51788.94;5110007;28;20225;-84
2023/10/13 10:00:34;;;;;;;8.20;2.03;;;;;;;-145.69;31.42;51781.00;5106226;28;20197;-82
2023/10/13 10:03:14;;;;;;;7.05;2.00;;;;;;;-145.69;31.67;51798.81;5089487;28;20553;-83
2023/10/13 10:05:44;;;;;;;6.50;2.25;;;;;;;-145.69;31.42;51796.84;5094647;28;20185;-82
2023/10/13 10:08:11;;;;;;;10.80;2.83;;;;;;;-145.69;30.44;51771.09;5109851;28;20221;-83
2023/10/13 10:10:52;;;;;;;6.88;1.90;;;;;;;-145.69;30.80;51777.03;5109576;28;20201;-84
2023/10/13 10:13:30;;;;;;;7.82;2.13;;;;;;;-145.69;30.49;51783.00;5109915;28;20324;-82
2023/10/13 10:16:02;;;;;;;7.32;1.80;;;;;;;-145.69;31.02;51771.09;5109614;28;20201;-83
2023/10/13 10:18:31;;;;;;;8.10;2.03;;;;;;;-145.69;30.91;51822.59;5109128;28;20313;-82
2023/10/13 10:21:08;;;;;;;8.48;2.03;;;;;;;-145.69;31.48;51796.84;5109377;28;20198;-82
2023/10/13 10:23:39;;;;;;;6.03;2.10;;;;;;;-145.69;31.19;51783.00;5109417;28;20216;-83
2023/10/13 10:26:15;;;;;;;6.20;2.13;;;;;;;-145.69;31.05;51798.81;5109703;28;20556;-84
2023/10/13 10:28:43;;;;;;;9.57;1.65;;;;;;;-145.69;31.32;51786.94;5103189;28;20205;-83
2023/10/13 10:31:12;;;;;;;7.40;2.03;;;;;;;-145.69;30.96;51779.03;5095170;28;20209;-83
2023/10/13 10:33:39;;;;;;;6.18;2.00;;;;;;;-145.69;31.42;51812.69;5095676;28;20255;-82
2023/10/13 10:36:14;;;;;;;8.63;2.30;;;;;;;-145.69;31.31;51798.81;5095722;28;20198;-83
2023/10/13 10:38:53;;;;;;;5.80;2.25;;;;;;;-145.69;30.37;51784.97;5095818;28;20228;-83
2023/10/13 10:41:29;;;;;;;6.40;2.30;;;;;;;-145.69;31.27;51784.97;5095757;28;20209;-82
2023/10/13 10:43:57;;;;;;;10.52;2.00;;;;;;;-145.69;31.09;51794.88;5095674;28;20256;-83
2023/10/13 10:46:27;;;;;;;5.05;2.10;;;;;;;-145.69;31.36;51753.28;5095187;28;20645;-83
2023/10/13 10:49:05;;;;;;;8.00;2.05;;;;;;;-145.69;32.13;51796.84;5095221;28;20692;-83
2023/10/13 10:51:43;;;;;;;10.13;2.38;;;;;;;-145.69;31.35;51755.25;5095543;28;20645;-83
2023/10/13 10:54:22;;;;;;;5.07;1.95;;;;;;;-145.69;31.13;51737.44;5094580;28;20239;-83
2023/10/13 10:56:52;;;;;;;3.63;1.67;;;;;;;-145.69;31.13;51794.88;5095235;28;20198;-83
2023/10/13 10:59:21;;;;;;;6.63;2.15;;;;;;;-145.69;31.39;51796.84;5094911;28;20281;-83
2023/10/13 11:01:50;;;;;;;10.68;1.98;;;;;;;-145.69;30.84;51775.06;5095391;28;20202;-83
2023/10/13 11:04:24;;;;;;;6.40;2.22;;;;;;;-145.69;30.60;51763.19;5094861;28;20197;-83
2023/10/13 11:06:54;;;;;;;7.30;2.38;;;;;;;-145.69;30.45;51790.91;5095363;28;20255;-83
2023/10/13 11:09:31;;;;;;;4.53;2.15;;;;;;;-145.69;30.88;51739.44;5094137;28;20206;-83
2023/10/13 11:12:15;;;;;;;8.77;2.30;;;;;;;-145.69;31.41;51783.00;5094731;28;20721;-83
2023/10/13 11:14:43;;;;;;;6.10;2.17;;;;;;;-145.69;30.97;51781.00;5095264;28;20208;-83
2023/10/13 11:17:18;;;;;;;6.43;2.30;;;;;;;-145.69;30.85;51753.28;5094171;28;20616;-82
2023/10/13 11:19:45;;;;;;;8.77;2.55;;;;;;;-145.69;29.96;51759.22;5081155;28;20198;-83
2023/10/13 11:22:29;;;;;;;5.28;1.63;;;;;;;-145.69;30.29;51783.00;5094323;28;20198;-84
2023/10/13 11:24:59;;;;;;;6.70;2.50;;;;;;;-145.69;29.42;51763.19;5094633;28;20657;-83
2023/10/13 11:27:43;;;;;;;5.57;2.22;;;;;;;-145.69;29.10;51767.16;5094794;28;20202;-83
2023/10/13 11:30:14;;;;;;;7.93;2.28;;;;;;;-145.69;29.33;51749.31;5094634;28;20569;-84
2023/10/13 11:32:42;;;;;;;9.52;2.38;;;;;;;-145.69;29.47;51739.44;5094182;28;20652;-83
2023/10/13 11:35:20;;;;;;;4.97;2.03;;;;;;;-145.69;29.21;51735.47;5094868;28;20202;-84
2023/10/13 11:37:56;;;;;;;6.15;2.10;;;;;;;-145.69;29.99;51747.34;5094055;28;20214;-83
2023/10/13 11:40:43;;;;;;;6.00;2.10;;;;;;;-145.69;30.21;51753.28;5093481;28;20297;-82
2023/10/13 11:43:14;;;;;;;10.32;2.33;;;;;;;-145.69;29.02;51759.22;5094713;28;20262;-83
2023/10/13 11:45:55;;;;;;;4.53;2.05;;;;;;;-145.69;29.71;51727.53;5094471;28;20228;-83
2023/10/13 11:48:34;;;;;;;9.85;2.30;;;;;;;-145.69;28.98;51743.38;5094249;28;20217;-84
2023/10/13 11:51:05;;;;;;;13.73;2.47;;;;;;;-145.69;29.61;51753.28;5093745;28;20205;-83
2023/10/13 11:53:34;;;;;;;5.00;2.20;;;;;;;-145.69;30.15;51741.41;5077818;28;20641;-84
2023/10/13 11:56:00;;;;;;;5.15;2.05;;;;;;;-145.69;29.82;51751.31;5073664;28;20207;-83
2023/10/13 11:58:28;;;;;;;10.25;2.15;;;;;;;-145.69;29.12;51761.22;5094109;28;20230;-84
2023/10/13 12:01:08;;;;;;;6.28;1.95;;;;;;;-145.69;29.38;51737.44;5093952;28;20580;-84
2023/10/13 12:06:46;;;;;;;4.07;1.98;;;;;;;-145.69;29.18;51723.59;4992009;28;20240;-84
2023/10/13 12:09:41;;;;;;;6.90;2.28;;;;;;;-145.69;29.50;51753.28;5061457;28;20202;-84
2023/10/13 12:12:05;;;;;;;7.10;2.58;;;;;;;-145.69;29.54;51737.44;5073181;28;20692;-83
2023/10/13 12:14:37;;;;;;;4.35;2.00;;;;;;;-145.69;29.78;51723.59;5079571;28;20194;-84
2023/10/13 12:17:04;;;;;;;5.63;2.15;;;;;;;-145.69;29.74;51729.53;5093407;28;20230;-84
2023/10/13 12:19:31;;;;;;;5.97;2.42;;;;;;;-145.69;29.86;51705.75;5093261;28;20620;-84
2023/10/13 12:22:04;;;;;;;6.47;1.90;;;;;;;-145.69;29.61;51735.47;5093604;28;20671;-84
2023/10/13 12:24:39;;;;;;;10.55;2.30;;;;;;;-145.69;29.93;51735.47;5093527;28;20644;-85
2023/10/13 12:27:18;;;;;;;8.38;2.05;;;;;;;-145.69;29.43;51731.50;5093657;28;20206;-84
2023/10/13 12:29:46;;;;;;;6.07;2.08;;;;;;;-145.69;29.03;51749.31;5093468;28;20194;-84
2023/10/13 12:32:13;;;;;;;7.13;2.22;;;;;;;-145.69;28.58;51707.75;5093305;28;20255;-84
2023/10/13 12:34:57;;;;;;;8.38;2.20;;;;;;;-145.69;28.35;51723.59;5093597;28;20217;-84
2023/10/13 12:37:49;;;;;;;6.25;2.60;;;;;;;-145.69;29.90;51739.44;5093661;28;20234;-85
2023/10/13 12:51:40;;;;;;;6.20;2.03;;;;;;;-145.69;29.03;51731.50;5093134;28;20202;-84
2023/10/13 12:54:13;;;;;;;8.05;2.15;;;;;;;-145.69;28.27;51705.75;5093446;28;20198;-84
2023/10/13 12:56:42;;;;;;;4.72;2.08;;;;;;;-145.69;29.48;51725.56;5093526;28;20578;-84
2023/10/13 12:59:13;;;;;;;7.15;2.47;;;;;;;-145.69;28.85;51719.63;5093053;28;20238;-84
2023/10/13 13:01:42;;;;;;;4.82;2.13;;;;;;;-145.69;29.03;51731.50;5093212;28;20617;-84
2023/10/13 13:04:16;;;;;;;4.45;2.15;;;;;;;-145.69;28.56;51709.72;5092856;28;20267;-84
2023/10/13 13:06:43;;;;;;;4.07;2.25;;;;;;;-145.69;29.29;51723.59;5093061;28;20313;-85
2023/10/13 13:09:10;;;;;;;6.00;2.35;;;;;;;-145.69;29.01;51719.63;5093253;28;20212;-84
2023/10/13 13:11:39;;;;;;;10.50;2.70;;;;;;;-145.69;29.05;51759.22;5092585;28;20209;-84
2023/10/13 13:14:08;;;;;;;9.15;2.58;;;;;;;-145.69;28.87;51729.53;5092663;28;20205;-85
2023/10/13 13:16:35;;;;;;;5.13;2.33;;;;;;;-145.69;28.44;51703.78;5092293;28;20233;-86
2023/10/13 13:19:09;;;;;;;5.18;2.22;;;;;;;-145.69;28.45;51727.53;5092922;28;20260;-84
2023/10/13 13:21:36;;;;;;;8.02;2.47;;;;;;;-145.69;28.45;51707.75;5093242;28;20206;-84
2023/10/13 13:24:04;;;;;;;6.65;2.20;;;;;;;-145.69;28.25;51733.50;5092941;28;20197;-85
2023/10/13 13:26:31;;;;;;;5.47;1.70;;;;;;;-145.69;28.99;51719.63;5092676;28;20216;-84
2023/10/13 13:28:57;;;;;;;8.98;2.25;;;;;;;-145.69;28.45;51695.88;5092817;28;20193;-85
2023/10/13 13:31:28;;;;;;;8.35;2.20;;;;;;;-145.69;29.17;51719.63;5092983;28;20204;-85